AirNav   Pilot Hours Calculator
 
 776 users online  

SC74 Marsh Point Airport
Beaufort, South Carolina, USA

GOING TO BEAUFORT?


FAA INFORMATION EFFECTIVE 07 NOVEMBER 2019

Location

FAA Identifier: SC74
Lat/Long: 32-27-42.6860N 080-36-03.3800W
32-27.711433N 080-36.056333W
32.4618572,-80.6009389
(estimated)
Elevation: 12 ft. / 4 m (estimated)
Variation: 04W (1985)
From city: 7 miles N of BEAUFORT, SC
Time zone: UTC -5 (UTC -4 during Daylight Saving Time)
Zip code: 29906

Airport Operations

Airport use: Private use, PERSONAL USE.
Activation date: 11/1987
Control tower: no
ARTCC: JACKSONVILLE CENTER
FSS: ANDERSON FLIGHT SERVICE STATION
Attendance: UNATNDD
Wind indicator: yes
Segmented circle: no

Airport Communications

WX AWOS-3 at ARW (3 nm SW): 119.675 (843-524-1000)
WX AWOS-3P at HXD (15 nm S): 121.4 (843-342-5072)

Nearby radio navigation aids

VOR radial/distance  VOR name  Freq  Var
SAVr064/35.8SAVANNAH VORTAC115.9506W
SVNr047/38.5HUNTER VOR/DME111.6002W
CHSr233/38.5CHARLESTON VORTAC113.5005W

 
NDB name  Hdg/Dist  Freq  Var  ID
DORCHESTER COUNTY211/39.536507WDYB -.. -.-- -...

Airport Services

Runway Information

Runway 18/36

Dimensions: 1700 x 75 ft. / 518 x 23 m
Surface: turf, in good condition
RUNWAY 18  RUNWAY 36
Traffic pattern: leftleft
Obstructions: 50 ft. trees, 5 ft. from runwaynone

Airport Ownership and Management from official FAA records

Ownership: Privately-owned
Owner: ALICIA E. CAMPBELL
6070 PERIMETER RD.
CHARLESTON, SC 29406
Phone (843) 554-9191
Manager: ALLEN B CAMPBELL
6070 PERIMETER RD
CHARLESTON, SC 29406
Phone (843) 554-9191

Airport Operational Statistics

Aircraft based on the field: 1
Single engine airplanes: 1
    

Additional Remarks

FOR CD CTC BEAUFORT APCH AT 843-228-6298, WHEN APCH CLSD CTC JACKSONVILLE ARTCC AT 904-845-1592.

Instrument Procedures

There are no published instrument procedures at SC74.

Some nearby airports with instrument procedures:

KARW - Beaufort County Airport (3 nm SW)
KNBC - Beaufort Marine Corps Air Station (Merritt Field) (6 nm W)
KHXD - Hilton Head Airport (15 nm S)
KRBW - Lowcountry Regional Airport (28 nm N)
KJZI - Charleston Executive Airport (33 nm NE)
 
Loc | Ops | Rwys | IFR | FBO | Links
Com | Nav | Svcs | Stats | Notes
Area around SC74 (Marsh Point Airport)
 
Road maps at: MapQuest Bing Google
 
Aerial photo
No photo
 
Sectional chart

 
Airport distance calculator
Flying to Marsh Point Airport? Find the distance to fly.

From to SC74

Sunrise and sunset
Times for 22-Nov-2019
 Local
(UTC-5)
 Zulu
(UTC)
Morning civil twilight06:3311:33
Sunrise06:5911:59
Sunset17:1822:18
Evening civil twilight17:4422:44

Current date and time
Zulu (UTC)  22-Nov-2019 11:35:02
Local (UTC-5)  22-Nov-2019 06:35:02
 
METAR
KARW 
3nm SW 
221115Z AUTO 00000KT 10SM CLR 08/08 A3013 RMK AO2
KNBC 
6nm W 
221056Z 00000KT 10SM CLR 08/07 A3013 RMK AO2 SLP204 FIRST T00830067
KHXD 
15nm S 
221035Z AUTO 00000KT 10SM CLR 08/08 A3014 RMK AO2
TAF
KNBC 
6nm W 
2209/2309 VRB06KT 9999 FEW200 QNH3003INS BECMG 2215/2217 25006KT 9999 SCT200 QNH3003INS T19/2220Z T06/2308Z
NOTAMs
Click for the latest NOTAMs
NOTAMs are issued by the DoD/FAA and will open in a separate window not controlled by AirNav.

 

 
 

Would you like to see your business listed on this page?

 If your business provides an interesting product or service to pilots, flight crews, aircraft, or users of the Marsh Point Airport, you should consider listing it here.  To start the listing process, click on the button below
 
Add a business
 

Other Pages about Marsh Point Airport

Update a link
 
Copyright © AirNav, LLC. All rights reserved. Privacy Policy  Contact